Time;durP1;ratioP1;P1;durP2;ratioP2;P2;SDS_P1;SDS_P2;PMS_P1;PMS_P2;Temp;Humidity;BMP_temperature;BMP_pressure;BME280_temperature;BME280_humidity;BME280_pressure;Samples;Min_cycle;Max_cycle;Signal;HPM_P1;HPM_P2
2022/12/02 00:00:24;;;;;;;0.65;0.65;;;;;;;;;;4134062;28;20421;-49
2022/12/02 00:02:27;;;;;;;0.68;0.65;;;;;;;;;;4135880;28;20104;-46
2022/12/02 00:04:30;;;;;;;0.40;0.40;;;;;;;;;;4140679;28;20096;-48
2022/12/02 00:06:31;;;;;;;0.80;0.77;;;;;;;;;;4147773;28;20556;-48
2022/12/02 00:08:35;;;;;;;0.70;0.70;;;;;;;;;;4147624;28;20188;-47
2022/12/02 00:10:36;;;;;;;0.77;0.73;;;;;;;;;;4127093;28;20522;-46
2022/12/02 00:12:37;;;;;;;0.80;0.57;;;;;;;;;;4121514;28;20046;-49
2022/12/02 00:14:38;;;;;;;0.98;0.88;;;;;;;;;;4138374;28;20065;-48
2022/12/02 00:16:40;;;;;;;0.65;0.50;;;;;;;;;;4144491;28;20096;-51
2022/12/02 00:18:41;;;;;;;0.93;0.70;;;;;;;;;;4147551;28;20127;-48
2022/12/02 00:20:43;;;;;;;0.82;0.80;;;;;;;;;;4147727;28;20054;-49
2022/12/02 00:22:44;;;;;;;0.75;0.68;;;;;;;;;;4145563;28;20116;-52
2022/12/02 00:24:46;;;;;;;0.98;0.75;;;;;;;;;;4131768;28;20116;-49
2022/12/02 00:26:47;;;;;;;0.65;0.52;;;;;;;;;;4146488;28;20100;-49
2022/12/02 00:28:49;;;;;;;0.60;0.60;;;;;;;;;;4129554;28;20061;-49
2022/12/02 00:30:50;;;;;;;0.70;0.63;;;;;;;;;;4147777;28;20133;-50
2022/12/02 00:32:53;;;;;;;0.73;0.70;;;;;;;;;;4147339;28;20056;-54
2022/12/02 00:34:54;;;;;;;0.75;0.70;;;;;;;;;;4147023;28;20058;-50
2022/12/02 00:36:56;;;;;;;0.85;0.77;;;;;;;;;;4150283;28;20054;-49
2022/12/02 00:38:57;;;;;;;0.82;0.65;;;;;;;;;;4147041;28;20057;-49
2022/12/02 00:40:58;;;;;;;0.77;0.65;;;;;;;;;;4137390;28;20494;-52
2022/12/02 00:47:40;;;;;;;0.82;0.70;;;;;;;;;;4147481;28;20058;-49
2022/12/02 00:49:41;;;;;;;0.95;0.68;;;;;;;;;;4161897;28;20057;-47
2022/12/02 00:51:44;;;;;;;0.70;0.70;;;;;;;;;;4151096;28;20050;-50
2022/12/02 00:53:47;;;;;;;0.82;0.65;;;;;;;;;;4153367;28;20497;-50
2022/12/02 00:55:48;;;;;;;1.40;0.88;;;;;;;;;;4162514;28;20057;-48
2022/12/02 00:57:50;;;;;;;0.93;0.82;;;;;;;;;;4145432;28;20058;-49
2022/12/02 00:59:51;;;;;;;0.70;0.70;;;;;;;;;;4146167;28;20449;-49
2022/12/02 01:01:53;;;;;;;0.73;0.73;;;;;;;;;;4129590;28;20509;-53
2022/12/02 01:03:54;;;;;;;0.45;0.40;;;;;;;;;;4146522;28;20053;-50
2022/12/02 01:05:56;;;;;;;1.40;0.63;;;;;;;;;;4161761;28;20119;-43
2022/12/02 01:07:57;;;;;;;0.90;0.60;;;;;;;;;;4151192;28;20050;-47
2022/12/02 01:09:58;;;;;;;0.85;0.68;;;;;;;;;;4146763;28;20505;-49
2022/12/02 01:11:59;;;;;;;1.05;0.68;;;;;;;;;;4147295;28;20054;-53
2022/12/02 01:14:00;;;;;;;0.75;0.60;;;;;;;;;;4129673;28;20101;-52
2022/12/02 01:16:02;;;;;;;0.70;0.50;;;;;;;;;;4146528;28;20104;-50
2022/12/02 01:18:04;;;;;;;0.70;0.70;;;;;;;;;;4129571;28;20054;-49
2022/12/02 01:20:05;;;;;;;0.98;0.60;;;;;;;;;;4146974;28;20489;-54
2022/12/02 01:22:07;;;;;;;0.80;0.60;;;;;;;;;;4151149;28;20058;-51
2022/12/02 01:24:10;;;;;;;1.17;0.88;;;;;;;;;;4131729;28;20108;-50
2022/12/02 01:26:12;;;;;;;0.63;0.60;;;;;;;;;;4117627;28;20062;-49
2022/12/02 01:28:17;;;;;;;2.13;0.70;;;;;;;;;;4131577;28;20054;-50
2022/12/02 01:30:18;;;;;;;0.70;0.68;;;;;;;;;;4131751;28;20051;-50
2022/12/02 01:32:19;;;;;;;0.82;0.73;;;;;;;;;;4141511;28;20104;-47
2022/12/02 01:34:21;;;;;;;0.90;0.68;;;;;;;;;;4131426;28;20054;-50
2022/12/02 01:36:22;;;;;;;1.10;0.90;;;;;;;;;;4113505;28;20517;-50
2022/12/02 01:38:23;;;;;;;1.02;0.82;;;;;;;;;;4138145;28;20096;-47
2022/12/02 01:40:27;;;;;;;1.05;0.75;;;;;;;;;;4136936;28;20460;-49
2022/12/02 01:42:28;;;;;;;0.80;0.80;;;;;;;;;;4113843;28;20081;-51
2022/12/02 01:44:30;;;;;;;0.75;0.75;;;;;;;;;;4146485;28;20062;-47
2022/12/02 01:46:32;;;;;;;0.80;0.55;;;;;;;;;;4154979;28;20069;-51
2022/12/02 01:48:35;;;;;;;0.88;0.88;;;;;;;;;;4134293;28;20061;-51
2022/12/02 01:50:37;;;;;;;1.05;0.82;;;;;;;;;;4128896;28;20074;-51
2022/12/02 01:52:39;;;;;;;0.60;0.60;;;;;;;;;;4143385;28;20084;-51
2022/12/02 01:54:40;;;;;;;1.13;0.90;;;;;;;;;;4152655;28;20058;-45
2022/12/02 01:56:41;;;;;;;1.08;0.98;;;;;;;;;;4142313;28;20061;-47
2022/12/02 01:58:42;;;;;;;1.10;0.80;;;;;;;;;;4112689;28;20055;-47
2022/12/02 02:00:44;;;;;;;0.98;0.88;;;;;;;;;;4146497;28;20137;-49
2022/12/02 02:02:45;;;;;;;1.13;0.88;;;;;;;;;;4153314;28;20500;-48
2022/12/02 02:04:46;;;;;;;0.57;0.55;;;;;;;;;;4124136;28;20540;-47
2022/12/02 02:06:48;;;;;;;1.08;0.85;;;;;;;;;;4143167;28;20054;-53
2022/12/02 02:08:50;;;;;;;1.02;0.60;;;;;;;;;;4129685;28;20050;-47
2022/12/02 02:10:51;;;;;;;0.70;0.60;;;;;;;;;;4119721;28;20061;-48
2022/12/02 02:12:53;;;;;;;1.17;0.88;;;;;;;;;;4140086;28;20064;-48
2022/12/02 02:14:55;;;;;;;0.90;0.80;;;;;;;;;;4161013;28;20049;-44
2022/12/02 02:16:56;;;;;;;0.68;0.68;;;;;;;;;;4125689;28;20059;-51
2022/12/02 02:18:57;;;;;;;1.08;0.80;;;;;;;;;;4151061;28;20531;-48
2022/12/02 02:20:59;;;;;;;1.25;0.80;;;;;;;;;;4144036;28;20064;-47
2022/12/02 02:23:04;;;;;;;1.15;0.95;;;;;;;;;;4112410;28;20054;-47
2022/12/02 02:25:11;;;;;;;0.60;0.60;;;;;;;;;;4152807;28;20579;-49
2022/12/02 02:27:13;;;;;;;0.65;0.57;;;;;;;;;;4138057;28;20058;-49
2022/12/02 02:29:16;;;;;;;1.27;0.80;;;;;;;;;;4128268;28;20456;-47
2022/12/02 02:31:18;;;;;;;0.82;0.70;;;;;;;;;;4109426;28;20066;-47
2022/12/02 02:33:21;;;;;;;0.77;0.75;;;;;;;;;;4112221;28;20518;-49
2022/12/02 02:35:22;;;;;;;0.77;0.77;;;;;;;;;;4112478;28;20514;-52
2022/12/02 02:37:24;;;;;;;1.00;0.80;;;;;;;;;;4137466;28;20401;-48
2022/12/02 02:39:26;;;;;;;0.77;0.77;;;;;;;;;;4116114;28;20059;-45
2022/12/02 02:41:27;;;;;;;0.80;0.80;;;;;;;;;;4141636;28;20049;-47
2022/12/02 02:43:29;;;;;;;0.90;0.68;;;;;;;;;;4134793;28;20054;-47
2022/12/02 02:45:33;;;;;;;0.85;0.70;;;;;;;;;;4128406;28;20058;-48
2022/12/02 02:47:36;;;;;;;0.65;0.63;;;;;;;;;;4145795;28;20081;-47
2022/12/02 02:49:38;;;;;;;0.93;0.73;;;;;;;;;;4096128;28;20055;-47
2022/12/02 02:51:39;;;;;;;1.10;0.68;;;;;;;;;;4134536;28;20050;-48
2022/12/02 02:53:43;;;;;;;1.10;0.80;;;;;;;;;;4144271;28;20120;-48
2022/12/02 02:55:44;;;;;;;0.80;0.70;;;;;;;;;;4117059;28;20574;-48
2022/12/02 02:57:46;;;;;;;1.15;0.70;;;;;;;;;;4157657;28;20057;-45
2022/12/02 02:59:50;;;;;;;0.95;0.80;;;;;;;;;;4116512;28;20046;-47
2022/12/02 03:01:52;;;;;;;0.82;0.80;;;;;;;;;;4120324;28;20475;-48
2022/12/02 03:03:57;;;;;;;0.80;0.70;;;;;;;;;;4155147;28;20547;-50
2022/12/02 03:06:00;;;;;;;1.58;0.82;;;;;;;;;;4127385;28;20086;-47
2022/12/02 03:08:02;;;;;;;1.23;0.98;;;;;;;;;;4143835;28;20053;-48
2022/12/02 03:10:05;;;;;;;1.02;0.70;;;;;;;;;;4136223;28;20046;-48
2022/12/02 03:12:07;;;;;;;1.08;0.93;;;;;;;;;;4144593;28;20112;-50
2022/12/02 03:14:09;;;;;;;0.88;0.77;;;;;;;;;;4144213;28;20104;-52
2022/12/02 03:16:14;;;;;;;0.55;0.55;;;;;;;;;;4128403;28;20062;-47
2022/12/02 03:18:15;;;;;;;1.10;0.82;;;;;;;;;;4128044;28;20399;-46
2022/12/02 03:20:17;;;;;;;1.13;0.80;;;;;;;;;;4133368;28;20057;-47
2022/12/02 03:22:19;;;;;;;0.98;0.75;;;;;;;;;;4130205;28;20054;-48
2022/12/02 03:24:20;;;;;;;0.80;0.70;;;;;;;;;;4124015;28;20097;-46
2022/12/02 03:26:22;;;;;;;0.75;0.60;;;;;;;;;;4139442;28;20472;-49
2022/12/02 03:28:24;;;;;;;0.90;0.80;;;;;;;;;;4154139;28;20057;-48
2022/12/02 03:30:25;;;;;;;0.80;0.70;;;;;;;;;;4135906;28;20046;-48
2022/12/02 03:32:26;;;;;;;0.88;0.70;;;;;;;;;;4134949;28;20062;-49
2022/12/02 03:34:28;;;;;;;0.70;0.60;;;;;;;;;;4131256;28;20740;-46
2022/12/02 03:36:29;;;;;;;1.00;0.80;;;;;;;;;;4148574;28;20077;-47
2022/12/02 03:38:31;;;;;;;1.20;0.77;;;;;;;;;;4130664;28;20054;-47
2022/12/02 03:40:32;;;;;;;0.80;0.63;;;;;;;;;;4128887;28;20058;-46
2022/12/02 03:42:33;;;;;;;1.73;1.10;;;;;;;;;;4143383;28;20129;-49
2022/12/02 03:44:35;;;;;;;0.95;0.70;;;;;;;;;;4123299;28;20055;-47
2022/12/02 03:46:37;;;;;;;1.25;0.90;;;;;;;;;;4143375;28;20056;-46
2022/12/02 03:48:38;;;;;;;0.68;0.60;;;;;;;;;;4141996;28;20105;-48
2022/12/02 03:50:40;;;;;;;0.77;0.75;;;;;;;;;;4120711;28;20407;-49
2022/12/02 03:52:41;;;;;;;0.68;0.68;;;;;;;;;;4138810;28;20065;-48
2022/12/02 03:54:43;;;;;;;0.70;0.70;;;;;;;;;;4139635;28;20058;-48
2022/12/02 03:56:44;;;;;;;1.00;0.80;;;;;;;;;;4139235;28;20054;-44
2022/12/02 03:58:48;;;;;;;0.93;0.80;;;;;;;;;;4121754;28;20105;-47
2022/12/02 04:00:50;;;;;;;1.10;1.00;;;;;;;;;;4138744;28;20054;-50
2022/12/02 04:02:51;;;;;;;0.80;0.70;;;;;;;;;;4144805;28;20054;-48
2022/12/02 04:04:53;;;;;;;0.70;0.65;;;;;;;;;;4121993;28;20054;-47
2022/12/02 04:06:54;;;;;;;0.70;0.52;;;;;;;;;;4134291;28;20112;-49
2022/12/02 04:08:55;;;;;;;1.13;0.80;;;;;;;;;;4141782;28;20111;-52
2022/12/02 04:10:57;;;;;;;0.90;0.70;;;;;;;;;;4140419;28;20065;-46
2022/12/02 04:12:58;;;;;;;0.70;0.68;;;;;;;;;;4121729;28;20095;-47
2022/12/02 04:14:59;;;;;;;0.70;0.70;;;;;;;;;;4140535;28;20127;-47
2022/12/02 04:17:00;;;;;;;0.68;0.65;;;;;;;;;;4142060;28;20050;-47
2022/12/02 04:19:01;;;;;;;0.80;0.70;;;;;;;;;;4133114;28;20507;-50
2022/12/02 04:21:03;;;;;;;0.57;0.57;;;;;;;;;;4132643;28;20062;-48
2022/12/02 04:23:04;;;;;;;0.90;0.80;;;;;;;;;;4137912;28;20453;-49
2022/12/02 04:25:06;;;;;;;0.50;0.50;;;;;;;;;;4135418;28;20061;-47
2022/12/02 04:27:07;;;;;;;0.85;0.80;;;;;;;;;;4141967;28;20058;-48
2022/12/02 04:29:08;;;;;;;0.80;0.80;;;;;;;;;;4145752;28;20049;-46
2022/12/02 04:31:09;;;;;;;1.05;0.90;;;;;;;;;;4138911;28;20054;-48
2022/12/02 04:33:11;;;;;;;0.85;0.73;;;;;;;;;;4141175;28;20057;-49
2022/12/02 04:35:12;;;;;;;0.57;0.57;;;;;;;;;;4124453;28;20481;-49
2022/12/02 04:37:13;;;;;;;1.00;0.90;;;;;;;;;;4140435;28;20100;-48
2022/12/02 04:39:14;;;;;;;1.00;0.80;;;;;;;;;;4137131;28;20126;-47
2022/12/02 04:41:16;;;;;;;1.27;1.00;;;;;;;;;;4140185;28;20532;-45
2022/12/02 04:43:17;;;;;;;0.88;0.70;;;;;;;;;;4124339;28;20054;-47
2022/12/02 04:45:18;;;;;;;0.90;0.68;;;;;;;;;;4152376;28;20081;-48
2022/12/02 04:47:20;;;;;;;0.63;0.63;;;;;;;;;;4130398;28;20077;-48
2022/12/02 04:49:21;;;;;;;0.80;0.70;;;;;;;;;;4145203;28;20591;-47
2022/12/02 04:51:23;;;;;;;0.70;0.70;;;;;;;;;;4147497;28;20470;-47
2022/12/02 04:53:24;;;;;;;0.75;0.75;;;;;;;;;;4146755;28;20057;-47
2022/12/02 04:55:26;;;;;;;0.82;0.80;;;;;;;;;;4137511;28;20061;-50
2022/12/02 04:57:27;;;;;;;0.90;0.77;;;;;;;;;;4144257;28;20132;-49
2022/12/02 04:59:28;;;;;;;1.00;0.80;;;;;;;;;;4133733;28;20560;-49
2022/12/02 05:01:29;;;;;;;0.75;0.50;;;;;;;;;;4146378;28;20124;-48
2022/12/02 05:03:31;;;;;;;1.00;0.90;;;;;;;;;;4138317;28;20053;-49
2022/12/02 05:05:32;;;;;;;1.00;0.90;;;;;;;;;;4143101;28;20061;-48
2022/12/02 05:07:33;;;;;;;0.98;0.77;;;;;;;;;;4146432;28;20141;-48
2022/12/02 05:09:35;;;;;;;0.70;0.60;;;;;;;;;;4147047;28;20050;-47
2022/12/02 05:11:36;;;;;;;0.93;0.75;;;;;;;;;;4147058;28;20061;-47
2022/12/02 05:13:37;;;;;;;1.20;0.63;;;;;;;;;;4147234;28;20058;-48
2022/12/02 05:15:38;;;;;;;0.65;0.57;;;;;;;;;;4156099;28;20057;-47
2022/12/02 05:17:40;;;;;;;1.20;0.93;;;;;;;;;;4146834;28;20421;-47
2022/12/02 05:19:42;;;;;;;1.00;0.90;;;;;;;;;;4123523;28;20050;-47
2022/12/02 05:21:44;;;;;;;0.98;0.80;;;;;;;;;;4146909;28;20058;-49
2022/12/02 05:23:45;;;;;;;1.08;0.90;;;;;;;;;;4132994;28;20367;-46
2022/12/02 05:25:48;;;;;;;0.63;0.63;;;;;;;;;;4158768;28;20054;-46
2022/12/02 05:27:49;;;;;;;0.63;0.60;;;;;;;;;;4137035;28;20497;-50
2022/12/02 05:29:51;;;;;;;1.13;0.90;;;;;;;;;;4146857;28;20053;-49
2022/12/02 05:31:52;;;;;;;0.70;0.70;;;;;;;;;;4131890;28;20062;-53
2022/12/02 05:33:53;;;;;;;1.00;0.60;;;;;;;;;;4133183;28;20106;-52
2022/12/02 05:35:55;;;;;;;1.00;0.88;;;;;;;;;;4141584;28;20105;-53
2022/12/02 05:37:56;;;;;;;0.70;0.60;;;;;;;;;;4138430;28;20058;-50
2022/12/02 05:39:58;;;;;;;0.82;0.77;;;;;;;;;;4146932;28;20358;-46
2022/12/02 05:42:02;;;;;;;1.10;0.77;;;;;;;;;;4146307;28;20054;-51
2022/12/02 05:44:18;;;;;;;0.80;0.73;;;;;;;;;;4157310;28;20069;-48
2022/12/02 05:46:20;;;;;;;1.10;0.80;;;;;;;;;;4140473;28;20053;-48
2022/12/02 05:48:22;;;;;;;1.50;0.80;;;;;;;;;;4146759;28;20167;-47
2022/12/02 05:50:23;;;;;;;0.95;0.80;;;;;;;;;;4145817;28;20053;-47
2022/12/02 05:52:29;;;;;;;0.82;0.75;;;;;;;;;;4146270;28;20114;-48
2022/12/02 05:54:30;;;;;;;1.05;0.85;;;;;;;;;;4146791;28;20106;-48
2022/12/02 05:56:32;;;;;;;0.90;0.60;;;;;;;;;;4146751;28;20560;-49
2022/12/02 05:58:33;;;;;;;0.90;0.80;;;;;;;;;;4130691;28;20054;-48
2022/12/02 06:00:35;;;;;;;0.85;0.77;;;;;;;;;;4131840;28;20102;-51
2022/12/02 06:02:39;;;;;;;1.15;0.95;;;;;;;;;;4128427;28;20062;-47
2022/12/02 06:04:41;;;;;;;0.98;0.70;;;;;;;;;;4140899;28;20409;-48
2022/12/02 06:06:43;;;;;;;0.77;0.60;;;;;;;;;;4144110;28;20417;-48
2022/12/02 06:08:44;;;;;;;0.65;0.63;;;;;;;;;;4144332;28;20567;-49
2022/12/02 06:10:53;;;;;;;0.93;0.70;;;;;;;;;;4136624;28;20115;-46
2022/12/02 06:12:57;;;;;;;0.98;0.80;;;;;;;;;;4155613;28;20118;-46
2022/12/02 06:14:58;;;;;;;0.77;0.75;;;;;;;;;;4141945;28;20572;-47
2022/12/02 06:17:02;;;;;;;1.10;0.70;;;;;;;;;;4129057;28;20061;-48
2022/12/02 06:19:17;;;;;;;0.68;0.65;;;;;;;;;;4128630;28;20109;-49
2022/12/02 06:21:20;;;;;;;0.77;0.65;;;;;;;;;;4142032;28;20054;-47
2022/12/02 06:23:22;;;;;;;1.05;0.80;;;;;;;;;;4144381;28;20061;-49
2022/12/02 06:25:26;;;;;;;0.98;0.77;;;;;;;;;;4143181;28;20058;-49
2022/12/02 06:27:28;;;;;;;0.70;0.70;;;;;;;;;;4134243;28;20054;-50
2022/12/02 06:29:30;;;;;;;0.80;0.75;;;;;;;;;;4141497;28;20049;-52
2022/12/02 06:31:37;;;;;;;0.82;0.80;;;;;;;;;;4131905;28;20236;-53
2022/12/02 06:33:39;;;;;;;0.75;0.65;;;;;;;;;;4127073;28;20391;-53
2022/12/02 06:35:40;;;;;;;0.75;0.60;;;;;;;;;;4144432;28;20049;-51
2022/12/02 06:37:42;;;;;;;0.80;0.60;;;;;;;;;;4130285;28;20062;-52
2022/12/02 06:39:49;;;;;;;0.75;0.65;;;;;;;;;;4140977;28;20061;-47
2022/12/02 06:41:51;;;;;;;0.63;0.63;;;;;;;;;;4118353;28;20058;-47
2022/12/02 06:46:19;;;;;;;0.80;0.60;;;;;;;;;;4150718;28;20092;-48
2022/12/02 06:48:32;;;;;;;0.60;0.60;;;;;;;;;;4137842;28;20058;-49
2022/12/02 06:50:36;;;;;;;1.17;0.85;;;;;;;;;;4128185;28;20166;-46
2022/12/02 06:52:41;;;;;;;0.95;0.80;;;;;;;;;;4118594;28;20335;-46
2022/12/02 06:54:44;;;;;;;1.10;0.90;;;;;;;;;;4138402;28;20128;-50
2022/12/02 06:56:45;;;;;;;1.10;0.70;;;;;;;;;;4136871;28;20058;-48
2022/12/02 06:58:55;;;;;;;1.20;0.90;;;;;;;;;;4135431;28;20124;-48
2022/12/02 07:01:14;;;;;;;1.85;1.00;;;;;;;;;;4119745;28;20533;-45
2022/12/02 07:03:29;;;;;;;0.70;0.70;;;;;;;;;;4139549;28;20104;-47
2022/12/02 07:05:30;;;;;;;0.95;0.82;;;;;;;;;;4138752;28;20105;-50
2022/12/02 07:07:33;;;;;;;0.80;0.70;;;;;;;;;;4133622;28;20061;-48
2022/12/02 07:09:39;;;;;;;0.82;0.80;;;;;;;;;;4141590;28;20053;-47
2022/12/02 07:11:48;;;;;;;1.00;0.85;;;;;;;;;;4121740;28;20058;-49
2022/12/02 07:13:50;;;;;;;3.22;0.70;;;;;;;;;;4138480;28;20058;-49
2022/12/02 07:15:51;;;;;;;1.70;0.90;;;;;;;;;;4138374;28;20108;-48
2022/12/02 07:17:56;;;;;;;1.10;0.70;;;;;;;;;;4135003;28;21777;-49
2022/12/02 07:20:07;;;;;;;2.03;0.90;;;;;;;;;;4131150;28;20054;-51
2022/12/02 07:22:23;;;;;;;1.30;0.85;;;;;;;;;;4132114;28;20108;-50
2022/12/02 07:24:26;;;;;;;0.98;0.93;;;;;;;;;;4126154;28;20062;-48
2022/12/02 07:26:28;;;;;;;1.10;0.90;;;;;;;;;;4121502;28;20767;-49
2022/12/02 07:28:34;;;;;;;1.55;0.90;;;;;;;;;;4131977;28;20105;-48
2022/12/02 07:30:39;;;;;;;1.10;0.90;;;;;;;;;;4154405;28;20487;-49
2022/12/02 07:32:40;;;;;;;0.90;0.90;;;;;;;;;;4137839;28;20406;-46
2022/12/02 07:34:42;;;;;;;0.95;0.85;;;;;;;;;;4142450;28;20474;-46
2022/12/02 07:36:43;;;;;;;1.70;0.90;;;;;;;;;;4140073;28;20104;-52
2022/12/02 07:38:45;;;;;;;0.70;0.70;;;;;;;;;;4136958;28;20955;-44
2022/12/02 07:40:46;;;;;;;0.88;0.75;;;;;;;;;;4133044;28;20081;-47
2022/12/02 07:42:48;;;;;;;1.05;0.80;;;;;;;;;;4136099;28;20081;-47
2022/12/02 07:44:50;;;;;;;0.98;0.80;;;;;;;;;;4123537;28;20058;-47
2022/12/02 07:46:51;;;;;;;0.75;0.65;;;;;;;;;;4130944;28;20053;-47
2022/12/02 07:48:52;;;;;;;1.05;0.80;;;;;;;;;;4135410;28;20065;-46
2022/12/02 07:50:53;;;;;;;0.93;0.90;;;;;;;;;;4137359;28;20094;-49
2022/12/02 07:52:54;;;;;;;2.83;1.00;;;;;;;;;;4139057;28;20112;-47
2022/12/02 07:54:56;;;;;;;1.10;1.00;;;;;;;;;;4124575;28;20125;-46
2022/12/02 07:56:57;;;;;;;2.67;1.00;;;;;;;;;;4136881;28;20528;-48
2022/12/02 07:59:00;;;;;;;1.40;1.20;;;;;;;;;;4140574;28;20099;-45
2022/12/02 08:01:01;;;;;;;1.95;0.95;;;;;;;;;;4134264;28;20506;-47
2022/12/02 08:03:02;;;;;;;1.02;0.90;;;;;;;;;;4142120;28;20524;-46
2022/12/02 08:05:04;;;;;;;1.75;1.08;;;;;;;;;;4134720;28;20143;-46
2022/12/02 08:07:05;;;;;;;1.65;0.88;;;;;;;;;;4124383;28;20559;-47
2022/12/02 08:09:08;;;;;;;1.85;1.10;;;;;;;;;;4125445;28;20058;-44
2022/12/02 08:11:09;;;;;;;1.40;0.90;;;;;;;;;;4129890;28;20058;-45
2022/12/02 08:13:11;;;;;;;1.40;1.08;;;;;;;;;;4115915;28;20063;-44
2022/12/02 08:15:13;;;;;;;2.33;0.98;;;;;;;;;;4143313;28;20065;-51
2022/12/02 08:17:14;;;;;;;3.70;1.13;;;;;;;;;;4144604;28;20095;-45
2022/12/02 08:19:16;;;;;;;2.03;0.80;;;;;;;;;;4136803;28;20561;-45
2022/12/02 08:21:17;;;;;;;1.70;1.00;;;;;;;;;;4146400;28;20049;-49
2022/12/02 08:23:19;;;;;;;2.22;0.85;;;;;;;;;;4135880;28;20059;-46
2022/12/02 08:25:20;;;;;;;1.48;0.90;;;;;;;;;;4149677;28;20092;-50
2022/12/02 08:27:21;;;;;;;1.73;0.90;;;;;;;;;;4126710;28;20054;-45
2022/12/02 08:29:23;;;;;;;3.70;1.30;;;;;;;;;;4143467;28;20476;-47
2022/12/02 08:31:25;;;;;;;0.80;0.70;;;;;;;;;;4108544;28;20066;-46
2022/12/02 08:33:26;;;;;;;1.20;0.93;;;;;;;;;;4117748;28;20465;-45
2022/12/02 08:35:28;;;;;;;0.77;0.75;;;;;;;;;;4135129;28;20062;-46
2022/12/02 08:37:29;;;;;;;1.38;0.80;;;;;;;;;;4130952;28;20789;-44
2022/12/02 08:39:30;;;;;;;0.80;0.80;;;;;;;;;;4137609;28;20108;-47
2022/12/02 08:41:34;;;;;;;1.45;1.17;;;;;;;;;;4118125;28;20062;-47
2022/12/02 08:43:35;;;;;;;0.93;0.77;;;;;;;;;;4117009;28;20597;-45
2022/12/02 08:45:37;;;;;;;0.88;0.60;;;;;;;;;;4133310;28;20054;-44
2022/12/02 08:47:38;;;;;;;1.77;1.10;;;;;;;;;;4136765;28;20054;-46
2022/12/02 08:49:41;;;;;;;0.80;0.75;;;;;;;;;;4116472;28;20054;-48
2022/12/02 08:51:42;;;;;;;0.80;0.80;;;;;;;;;;4126066;28;20050;-50
2022/12/02 08:53:43;;;;;;;1.52;1.13;;;;;;;;;;4139585;28;20084;-44
2022/12/02 08:55:45;;;;;;;2.10;0.90;;;;;;;;;;4133119;28;20058;-45
2022/12/02 08:57:47;;;;;;;1.45;1.15;;;;;;;;;;4122239;28;20125;-45
2022/12/02 08:59:48;;;;;;;1.38;1.10;;;;;;;;;;4116740;28;20054;-47
2022/12/02 09:01:50;;;;;;;1.10;1.00;;;;;;;;;;4127562;28;20112;-45
2022/12/02 09:03:51;;;;;;;1.55;0.82;;;;;;;;;;4133371;28;20103;-47
2022/12/02 09:05:53;;;;;;;1.83;1.20;;;;;;;;;;4131806;28;20413;-46
2022/12/02 09:07:54;;;;;;;1.52;0.90;;;;;;;;;;4143327;28;20419;-44
2022/12/02 09:09:56;;;;;;;1.30;1.00;;;;;;;;;;4114539;28;20540;-47
2022/12/02 09:11:57;;;;;;;1.10;0.85;;;;;;;;;;4117087;28;20121;-45
2022/12/02 09:13:58;;;;;;;1.05;0.88;;;;;;;;;;4109744;28;20556;-48
2022/12/02 09:15:59;;;;;;;1.20;1.00;;;;;;;;;;4113457;28;20058;-47
2022/12/02 09:18:01;;;;;;;2.67;0.98;;;;;;;;;;4114322;28;20461;-48
2022/12/02 09:20:03;;;;;;;1.73;1.10;;;;;;;;;;4104829;28;20046;-49
2022/12/02 09:22:05;;;;;;;1.10;1.00;;;;;;;;;;4114357;28;20223;-45
2022/12/02 09:24:06;;;;;;;1.05;0.95;;;;;;;;;;4117400;28;20129;-47
2022/12/02 09:26:07;;;;;;;1.30;1.00;;;;;;;;;;4117848;28;20116;-49
2022/12/02 09:28:09;;;;;;;1.25;1.13;;;;;;;;;;4111974;28;20065;-47
2022/12/02 09:30:10;;;;;;;1.20;0.90;;;;;;;;;;4112251;28;20597;-49
2022/12/02 09:32:12;;;;;;;1.33;0.75;;;;;;;;;;4111850;28;20057;-46
2022/12/02 09:34:13;;;;;;;1.88;1.10;;;;;;;;;;4115296;28;20790;-44
2022/12/02 09:36:14;;;;;;;1.30;1.10;;;;;;;;;;4119356;28;20077;-55
2022/12/02 09:38:15;;;;;;;1.95;1.00;;;;;;;;;;4112306;28;20093;-48
2022/12/02 09:40:17;;;;;;;1.20;0.90;;;;;;;;;;4113488;28;20449;-44
2022/12/02 09:42:19;;;;;;;1.55;1.30;;;;;;;;;;4116490;28;20053;-46
2022/12/02 09:44:20;;;;;;;1.80;1.15;;;;;;;;;;4119194;28;20120;-44
2022/12/02 09:46:22;;;;;;;1.90;1.50;;;;;;;;;;4085644;28;20744;-45
2022/12/02 09:48:24;;;;;;;1.10;1.00;;;;;;;;;;4116456;28;20115;-46
2022/12/02 09:50:25;;;;;;;1.98;1.40;;;;;;;;;;4102030;28;20094;-46
2022/12/02 09:52:28;;;;;;;1.63;1.33;;;;;;;;;;4114298;28;20105;-46
2022/12/02 09:54:29;;;;;;;1.05;0.80;;;;;;;;;;4117533;28;20054;-44
2022/12/02 09:56:30;;;;;;;1.23;1.00;;;;;;;;;;4109274;28;20568;-48
2022/12/02 09:58:32;;;;;;;2.05;1.40;;;;;;;;;;4105999;28;20106;-46
2022/12/02 10:00:33;;;;;;;1.50;1.30;;;;;;;;;;4109603;28;20204;-48
2022/12/02 10:02:40;;;;;;;1.10;1.00;;;;;;;;;;4093726;28;20070;-45
2022/12/02 10:04:41;;;;;;;2.05;1.17;;;;;;;;;;4112198;28;20050;-50
2022/12/02 10:06:43;;;;;;;2.28;1.42;;;;;;;;;;4112990;28;20391;-45
2022/12/02 10:08:45;;;;;;;3.17;1.27;;;;;;;;;;4098511;28;20498;-44
2022/12/02 10:10:46;;;;;;;1.77;1.30;;;;;;;;;;4121471;28;20454;-45
2022/12/02 10:12:48;;;;;;;1.75;1.27;;;;;;;;;;4126967;28;20568;-49
2022/12/02 10:14:49;;;;;;;1.95;1.40;;;;;;;;;;4111818;28;20069;-46
2022/12/02 10:16:52;;;;;;;1.60;1.30;;;;;;;;;;4110948;28;20116;-49
2022/12/02 10:18:58;;;;;;;1.88;1.20;;;;;;;;;;4137802;28;20057;-49
2022/12/02 10:20:59;;;;;;;1.45;1.30;;;;;;;;;;4123893;28;20058;-49
2022/12/02 10:23:17;;;;;;;2.50;1.15;;;;;;;;;;4121266;28;20553;-43
2022/12/02 10:25:29;;;;;;;1.65;1.55;;;;;;;;;;4121770;28;20061;-46
2022/12/02 10:27:31;;;;;;;1.77;1.38;;;;;;;;;;4121840;28;20120;-44
2022/12/02 10:29:32;;;;;;;1.50;1.40;;;;;;;;;;4126200;28;20054;-46
2022/12/02 10:31:34;;;;;;;1.55;1.10;;;;;;;;;;4125778;28;20080;-45
2022/12/02 10:33:39;;;;;;;1.60;1.40;;;;;;;;;;4126319;28;20054;-47
2022/12/02 10:35:49;;;;;;;3.47;1.48;;;;;;;;;;4094989;28;20061;-44
2022/12/02 10:37:50;;;;;;;1.50;1.10;;;;;;;;;;4119761;28;20065;-45
2022/12/02 10:40:05;;;;;;;1.60;1.50;;;;;;;;;;4111799;28;20476;-47
2022/12/02 10:42:20;;;;;;;2.55;1.50;;;;;;;;;;4138957;28;20610;-47
2022/12/02 10:44:21;;;;;;;2.28;1.20;;;;;;;;;;4130480;28;20113;-44
2022/12/02 10:46:23;;;;;;;1.50;1.25;;;;;;;;;;4131596;28;20728;-49
2022/12/02 10:48:24;;;;;;;1.50;1.17;;;;;;;;;;4126847;28;20057;-49
2022/12/02 10:50:25;;;;;;;2.28;1.40;;;;;;;;;;4126301;28;20061;-46
2022/12/02 10:52:30;;;;;;;1.92;1.35;;;;;;;;;;4130160;28;20708;-45
2022/12/02 10:54:32;;;;;;;1.88;1.20;;;;;;;;;;4128172;28;20129;-45
2022/12/02 10:56:34;;;;;;;1.38;1.10;;;;;;;;;;4145288;28;20119;-46
2022/12/02 10:58:35;;;;;;;1.67;1.33;;;;;;;;;;4126421;28;20484;-49
2022/12/02 11:00:36;;;;;;;1.40;1.30;;;;;;;;;;4124433;28;20466;-44
2022/12/02 11:02:44;;;;;;;2.72;1.50;;;;;;;;;;4122553;28;20072;-48
2022/12/02 11:04:46;;;;;;;1.65;1.27;;;;;;;;;;4144661;28;20152;-44
2022/12/02 11:06:48;;;;;;;1.60;1.38;;;;;;;;;;4128230;28;20486;-43
2022/12/02 11:08:49;;;;;;;1.88;1.25;;;;;;;;;;4127057;28;20089;-44
2022/12/02 11:11:06;;;;;;;1.77;1.63;;;;;;;;;;4119654;28;20051;-44
2022/12/02 11:13:11;;;;;;;1.40;1.10;;;;;;;;;;4138894;28;20481;-45
2022/12/02 11:15:35;;;;;;;2.05;1.73;;;;;;;;;;4137609;28;20121;-45
2022/12/02 11:17:48;;;;;;;2.97;1.30;;;;;;;;;;4150721;28;21447;-45
2022/12/02 11:19:49;;;;;;;2.25;1.38;;;;;;;;;;4140207;28;20082;-45
2022/12/02 11:21:51;;;;;;;2.08;1.67;;;;;;;;;;4107312;28;20089;-46
2022/12/02 11:24:25;;;;;;;1.50;1.15;;;;;;;;;;4135108;28;20053;-43
2022/12/02 11:26:58;;;;;;;1.80;1.55;;;;;;;;;;4138547;28;20050;-45
2022/12/02 11:29:14;;;;;;;2.15;1.33;;;;;;;;;;4134273;28;20390;-43
2022/12/02 11:31:23;;;;;;;1.55;1.20;;;;;;;;;;4137377;28;20111;-44
2022/12/02 11:33:43;;;;;;;2.25;1.45;;;;;;;;;;4135522;28;20097;-43
2022/12/02 11:36:12;;;;;;;2.97;1.42;;;;;;;;;;4137781;28;20065;-46
2022/12/02 11:38:24;;;;;;;1.77;1.48;;;;;;;;;;4137200;28;20061;-45
2022/12/02 11:40:45;;;;;;;2.17;1.50;;;;;;;;;;4103878;28;20058;-43
2022/12/02 11:42:47;;;;;;;1.75;1.65;;;;;;;;;;4132025;28;20108;-43
2022/12/02 11:44:48;;;;;;;1.60;1.50;;;;;;;;;;4127804;28;20049;-43
2022/12/02 11:47:00;;;;;;;1.45;1.10;;;;;;;;;;4114103;28;20581;-44
2022/12/02 11:49:34;;;;;;;1.73;1.60;;;;;;;;;;4130182;28;20117;-43
2022/12/02 11:51:40;;;;;;;1.67;1.50;;;;;;;;;;4129636;28;20233;-44
2022/12/02 11:53:49;;;;;;;2.10;1.55;;;;;;;;;;4133719;28;20131;-43
2022/12/02 11:55:52;;;;;;;2.17;1.40;;;;;;;;;;4130399;28;20062;-42
2022/12/02 11:57:55;;;;;;;1.92;1.17;;;;;;;;;;4132621;28;20053;-43
2022/12/02 11:59:57;;;;;;;2.55;1.60;;;;;;;;;;4142841;28;20049;-43
2022/12/02 12:02:19;;;;;;;1.67;1.23;;;;;;;;;;4111071;28;20054;-45
2022/12/02 12:04:24;;;;;;;1.40;1.23;;;;;;;;;;4129572;28;20706;-44
2022/12/02 12:06:27;;;;;;;1.50;1.17;;;;;;;;;;4131235;28;20449;-44
2022/12/02 12:08:28;;;;;;;2.17;1.40;;;;;;;;;;4131354;28;20061;-43
2022/12/02 12:10:29;;;;;;;1.80;1.30;;;;;;;;;;4133829;28;20062;-43
2022/12/02 12:12:30;;;;;;;1.60;1.50;;;;;;;;;;4137367;28;20912;-43
2022/12/02 12:14:32;;;;;;;3.03;1.30;;;;;;;;;;4130855;28;20124;-43
2022/12/02 12:16:35;;;;;;;3.45;1.80;;;;;;;;;;4124369;28;20203;-44
2022/12/02 12:18:47;;;;;;;1.65;1.45;;;;;;;;;;4128290;28;20070;-44
2022/12/02 12:20:48;;;;;;;2.20;1.60;;;;;;;;;;4145768;28;20104;-44
2022/12/02 12:22:50;;;;;;;1.77;1.48;;;;;;;;;;4129242;28;20509;-43
2022/12/02 12:24:51;;;;;;;2.55;1.65;;;;;;;;;;4132206;28;20057;-44